< < Back
Terminal Aerodrome Forecast


Current Version              Previous Versions:   1  2  3  4  5  6  7  8  9  

Terminal Aerodrome Forecast

428
FTUS42 KJAX 261854 AAB
TAFJAX
TAF AMD
KJAX 261854Z 2619/2718 28012KT P6SM FEW040 SCT200
     FM270000 24007KT P6SM SCT250
     FM270900 30004KT P6SM BKN250
     FM271600 35006KT P6SM VCSH BKN050=



Latest METAR

774
SAUS80 KWBC 262200
MTRJAX
METAR KJAX 262156Z 28007KT 10SM FEW050 SCT100 SCT250 31/17 A2965 RMK AO2
SLP040 T03110172


USA.gov is the U.S. government's official web portal to all federal, state and local government web resources and services.